Time;durP1;ratioP1;P1;durP2;ratioP2;P2;SDS_P1;SDS_P2;PMS_P1;PMS_P2;Temp;Humidity;BMP_temperature;BMP_pressure;BME280_temperature;BME280_humidity;BME280_pressure;Samples;Min_cycle;Max_cycle;Signal;HPM_P1;HPM_P2
2022/12/10 00:01:47;;;;;;;35.10;23.25;;;;;;;9.55;76.56;99072.66;5093813;28;20012;-79
2022/12/10 00:04:14;;;;;;;32.63;22.70;;;;;;;9.74;76.69;99095.84;5093618;28;20428;-80
2022/12/10 00:06:41;;;;;;;34.95;22.20;;;;;;;9.22;76.68;98998.44;5093520;28;20031;-80
2022/12/10 00:09:13;;;;;;;33.40;23.67;;;;;;;9.91;76.68;99104.34;5093566;28;20032;-80
2022/12/10 00:11:40;;;;;;;39.97;25.50;;;;;;;9.78;76.83;99089.19;5091949;28;20127;-79
2022/12/10 00:14:06;;;;;;;36.90;23.05;;;;;;;10.06;76.29;99134.16;5093542;28;20031;-80
2022/12/10 00:16:36;;;;;;;31.23;21.20;;;;;;;10.07;76.68;99143.72;5092166;28;20042;-80
2022/12/10 00:19:01;;;;;;;35.15;24.52;;;;;;;9.79;76.56;99097.91;5093352;28;20050;-80
2022/12/10 00:21:29;;;;;;;33.78;22.48;;;;;;;9.87;76.34;99103.91;5091992;28;20501;-80
2022/12/10 00:23:55;;;;;;;39.67;25.83;;;;;;;9.20;76.38;98988.09;5093080;28;20028;-80
2022/12/10 00:26:23;;;;;;;35.75;24.55;;;;;;;10.09;76.69;99135.59;5093584;28;20024;-79
2022/12/10 00:28:50;;;;;;;35.20;21.95;;;;;;;9.54;77.15;99050.75;5093514;28;20028;-79
2022/12/10 00:31:19;;;;;;;37.53;23.95;;;;;;;9.67;76.32;99075.66;5093251;28;20097;-80
2022/12/10 00:33:45;;;;;;;37.08;22.17;;;;;;;9.67;77.02;99088.84;5093317;28;20028;-79
2022/12/10 00:36:16;;;;;;;38.35;23.90;;;;;;;9.40;76.44;99013.88;5093111;28;20020;-80
2022/12/10 00:38:42;;;;;;;41.70;24.50;;;;;;;10.07;77.17;99119.97;5092009;28;20024;-79
2022/12/10 00:41:08;;;;;;;43.72;26.23;;;;;;;9.54;76.93;99034.13;5093232;28;20024;-80
2022/12/10 00:43:34;;;;;;;47.25;27.67;;;;;;;9.71;77.02;99063.75;5093085;28;20404;-80
2022/12/10 00:46:00;;;;;;;51.80;27.80;;;;;;;9.93;76.81;99106.81;5093087;28;20016;-79
2022/12/10 00:48:25;;;;;;;45.85;28.00;;;;;;;9.66;76.80;99077.47;5092709;28;20024;-80
2022/12/10 00:51:01;;;;;;;47.85;27.65;;;;;;;10.06;76.93;99123.59;5092601;28;20074;-80
2022/12/10 00:53:29;;;;;;;44.92;26.50;;;;;;;9.91;77.59;99117.53;5092702;28;20019;-80
2022/12/10 00:55:55;;;;;;;44.33;27.55;;;;;;;10.08;77.48;99118.97;5091765;28;20514;-79
2022/12/10 00:58:21;;;;;;;42.42;25.55;;;;;;;9.23;77.12;98979.81;5091352;28;20397;-80
2022/12/10 01:00:47;;;;;;;41.53;25.08;;;;;;;10.13;77.16;99111.31;5091340;28;20023;-80
2022/12/10 01:03:12;;;;;;;39.28;24.70;;;;;;;9.95;77.15;99091.63;5092553;28;20038;-80
2022/12/10 01:05:38;;;;;;;38.72;24.55;;;;;;;10.02;77.46;99127.63;5092612;28;20020;-80
2022/12/10 01:08:03;;;;;;;40.47;25.02;;;;;;;9.95;77.52;99124.09;5092579;28;20028;-80
2022/12/10 01:10:29;;;;;;;40.83;24.35;;;;;;;9.27;77.71;99003.16;5092040;28;20051;-80
2022/12/10 01:12:55;;;;;;;39.63;24.08;;;;;;;10.00;77.79;99107.69;5092456;28;20024;-80
2022/12/10 01:15:20;;;;;;;38.22;24.05;;;;;;;9.66;77.37;99059.03;5092290;28;20503;-80
2022/12/10 01:17:45;;;;;;;36.63;22.70;;;;;;;10.00;77.29;99124.34;5092162;28;20028;-80
2022/12/10 01:20:12;;;;;;;38.50;23.20;;;;;;;9.64;77.38;99066.28;5092163;28;20032;-80
2022/12/10 01:22:38;;;;;;;47.70;27.73;;;;;;;9.29;77.19;99004.63;5092262;28;20458;-80
2022/12/10 01:25:03;;;;;;;73.03;40.28;;;;;;;9.21;77.48;98989.72;5092209;28;20550;-80
2022/12/10 01:27:29;;;;;;;59.13;34.45;;;;;;;9.52;77.77;99039.56;5092338;28;20020;-80
2022/12/10 01:29:54;;;;;;;48.85;28.60;;;;;;;7.95;77.53;98804.69;5092061;28;20028;-80
2022/12/10 01:32:20;;;;;;;41.67;25.20;;;;;;;9.56;77.71;99050.56;5091993;28;20024;-80
2022/12/10 01:34:45;;;;;;;41.72;25.00;;;;;;;9.61;77.66;99050.81;5091957;28;20032;-80
2022/12/10 01:37:11;;;;;;;41.05;24.52;;;;;;;9.31;77.98;98984.16;5091953;28;20046;-80
2022/12/10 01:39:37;;;;;;;45.25;26.55;;;;;;;9.70;77.37;99048.94;5092108;28;20031;-81
2022/12/10 01:42:03;;;;;;;37.70;23.88;;;;;;;9.54;77.49;99032.28;5091938;28;20499;-80
2022/12/10 01:44:28;;;;;;;39.67;23.98;;;;;;;10.05;78.04;99092.16;5091857;28;20028;-81
2022/12/10 01:46:56;;;;;;;36.88;22.98;;;;;;;10.06;78.04;99097.22;5090551;28;20030;-80
2022/12/10 01:49:27;;;;;;;40.08;24.92;;;;;;;10.07;77.63;99082.22;5090544;28;20125;-80
2022/12/10 01:51:55;;;;;;;42.58;25.10;;;;;;;9.91;77.97;99056.88;5090252;28;20389;-81
2022/12/10 01:54:43;;;;;;;38.58;23.83;;;;;;;9.81;77.80;99043.19;5091685;28;20045;-80
2022/12/10 01:57:17;;;;;;;37.90;24.15;;;;;;;8.83;77.35;98893.38;5091536;28;20035;-80
2022/12/10 02:00:00;;;;;;;41.80;25.67;;;;;;;10.10;77.60;99063.38;5091618;28;20507;-80
2022/12/10 02:02:30;;;;;;;39.33;23.38;;;;;;;10.06;77.82;99062.13;5091382;28;20028;-80
2022/12/10 02:05:07;;;;;;;41.72;24.13;;;;;;;10.07;77.68;99063.75;5091254;28;20111;-80
2022/12/10 02:07:33;;;;;;;39.15;23.35;;;;;;;10.09;77.71;99067.84;5091337;28;20552;-80
2022/12/10 02:10:13;;;;;;;39.85;23.65;;;;;;;10.12;77.33;99050.81;5090272;28;20124;-80
2022/12/10 02:12:54;;;;;;;35.28;22.25;;;;;;;10.14;77.14;99054.91;5090103;28;20405;-80
2022/12/10 02:15:24;;;;;;;39.33;22.75;;;;;;;9.82;77.54;99000.00;5091428;28;20107;-80
2022/12/10 02:17:57;;;;;;;39.83;21.92;;;;;;;9.63;77.05;98963.66;5091242;28;20113;-80
2022/12/10 02:20:36;;;;;;;42.05;23.90;;;;;;;9.91;77.86;99001.50;5091255;28;20019;-80
2022/12/10 02:23:09;;;;;;;41.80;24.77;;;;;;;10.11;78.01;99030.72;5091340;28;20073;-80
2022/12/10 02:26:00;;;;;;;43.63;25.73;;;;;;;10.11;77.95;99028.09;5091246;28;20027;-80
2022/12/10 02:28:31;;;;;;;40.92;25.00;;;;;;;10.16;78.12;99030.97;5091225;28;20028;-80
2022/12/10 02:30:59;;;;;;;42.33;27.50;;;;;;;9.92;77.95;98991.78;5091197;28;20039;-80
2022/12/10 02:33:27;;;;;;;43.95;27.30;;;;;;;9.81;77.56;98969.38;5091358;28;20032;-80
2022/12/10 02:35:56;;;;;;;40.45;23.95;;;;;;;10.23;77.87;99037.16;5089934;28;20020;-80
2022/12/10 02:38:31;;;;;;;42.45;25.92;;;;;;;9.94;77.68;98979.22;5091319;28;20036;-80
2022/12/10 02:41:05;;;;;;;43.28;25.98;;;;;;;9.04;77.93;98830.28;5091292;28;20016;-80
2022/12/10 02:43:32;;;;;;;43.95;23.80;;;;;;;9.88;77.68;98983.44;5091284;28;20218;-80
2022/12/10 02:45:59;;;;;;;44.22;25.73;;;;;;;9.65;77.19;98922.13;5089904;28;20028;-80
2022/12/10 02:48:26;;;;;;;46.45;27.20;;;;;;;10.30;77.76;99021.41;5091064;28;20089;-79
2022/12/10 02:50:51;;;;;;;40.95;26.55;;;;;;;9.54;77.98;98916.34;5091251;28;20036;-80
2022/12/10 02:53:17;;;;;;;48.85;29.00;;;;;;;9.12;77.24;98874.13;5089771;28;20024;-79
2022/12/10 02:56:06;;;;;;;43.60;24.05;;;;;;;10.03;77.50;99000.00;5091027;28;20028;-79
2022/12/10 02:58:40;;;;;;;38.58;24.77;;;;;;;10.12;77.17;98998.06;5089547;28;20093;-79
2022/12/10 03:01:27;;;;;;;43.22;25.63;;;;;;;10.27;77.56;99021.78;5089648;28;20032;-79
2022/12/10 03:03:59;;;;;;;37.75;24.48;;;;;;;10.15;77.44;99024.88;5089694;28;20028;-80
2022/12/10 03:06:25;;;;;;;45.83;26.25;;;;;;;10.26;77.33;99038.63;5091148;28;20493;-79
2022/12/10 03:09:00;;;;;;;53.80;27.83;;;;;;;9.87;77.67;98992.34;5091002;28;20110;-79
2022/12/10 03:11:26;;;;;;;49.53;27.00;;;;;;;10.05;78.20;99037.56;5089307;28;20067;-79
2022/12/10 03:14:18;;;;;;;50.45;26.55;;;;;;;10.11;77.66;99034.19;5090925;28;20120;-80
2022/12/10 03:16:51;;;;;;;52.35;27.08;;;;;;;10.07;78.05;99035.56;5090851;28;20419;-79
2022/12/10 03:19:20;;;;;;;69.03;32.15;;;;;;;9.67;78.44;98978.94;5093063;28;20116;-79
2022/12/10 03:21:48;;;;;;;55.30;29.90;;;;;;;9.77;78.01;98994.47;5094446;28;20027;-79
2022/12/10 03:24:15;;;;;;;51.17;28.05;;;;;;;9.78;78.07;99001.38;5094471;28;20038;-79
2022/12/10 03:26:41;;;;;;;52.78;28.67;;;;;;;9.49;78.09;98957.44;5093175;28;20424;-79
2022/12/10 03:29:13;;;;;;;54.42;27.70;;;;;;;9.62;78.36;98949.66;5093110;28;20027;-79
2022/12/10 03:31:40;;;;;;;45.53;25.80;;;;;;;9.42;78.09;98927.56;5094452;28;20394;-79
2022/12/10 03:34:09;;;;;;;52.72;27.05;;;;;;;10.08;77.79;99044.28;5094287;28;20040;-79
2022/12/10 03:36:35;;;;;;;53.33;26.95;;;;;;;9.66;78.18;98956.22;5094286;28;20032;-79
2022/12/10 03:39:01;;;;;;;47.45;26.65;;;;;;;9.34;77.85;98915.31;5092896;28;20504;-79
2022/12/10 03:41:27;;;;;;;52.80;29.58;;;;;;;9.26;77.81;98918.06;5094228;28;20019;-79
2022/12/10 03:43:58;;;;;;;48.78;25.65;;;;;;;10.02;78.23;99029.22;5092860;28;20078;-79
2022/12/10 03:46:26;;;;;;;48.03;28.27;;;;;;;10.02;78.36;99032.66;5094109;28;20031;-80
2022/12/10 03:48:52;;;;;;;55.80;29.67;;;;;;;10.05;78.43;99032.28;5092586;28;20711;-79
2022/12/10 03:51:18;;;;;;;50.38;27.35;;;;;;;10.08;78.23;99010.81;5092390;28;20035;-79
2022/12/10 03:53:44;;;;;;;49.97;27.65;;;;;;;10.07;78.04;99005.72;5093875;28;20031;-79
2022/12/10 03:56:09;;;;;;;51.33;27.83;;;;;;;9.93;78.28;99001.31;5094043;28;20028;-79
2022/12/10 03:58:35;;;;;;;52.50;30.17;;;;;;;10.09;77.96;99032.75;5093646;28;20088;-79
2022/12/10 04:01:01;;;;;;;50.20;28.95;;;;;;;10.07;77.89;99027.66;5092501;28;20073;-79
2022/12/10 04:03:27;;;;;;;50.35;27.27;;;;;;;9.91;77.90;98996.25;5092480;28;20023;-79
2022/12/10 04:05:52;;;;;;;47.15;27.08;;;;;;;9.58;77.62;98958.94;5093648;28;20481;-79
2022/12/10 04:08:17;;;;;;;57.60;27.98;;;;;;;9.21;77.70;98901.97;5093678;28;20028;-79
2022/12/10 04:10:43;;;;;;;46.08;27.65;;;;;;;9.62;77.81;98954.94;5093455;28;20044;-79
2022/12/10 04:18:36;;;;;;;49.95;26.90;;;;;;;9.74;77.71;98965.84;5093209;28;20092;-79
2022/12/10 04:29:13;;;;;;;43.10;25.50;;;;;;;10.00;77.81;98989.84;5093403;28;20482;-79
2022/12/10 04:31:38;;;;;;;45.40;26.13;;;;;;;9.53;77.76;98914.72;5091782;28;20032;-79
2022/12/10 04:34:04;;;;;;;40.00;24.20;;;;;;;10.08;77.59;99004.72;5092904;28;20024;-79
2022/12/10 04:36:29;;;;;;;41.30;23.42;;;;;;;9.73;77.42;98951.84;5092889;28;20487;-79
2022/12/10 04:38:54;;;;;;;38.50;23.35;;;;;;;10.10;77.64;99008.00;5092947;28;20034;-79
2022/12/10 04:41:20;;;;;;;38.22;22.85;;;;;;;9.45;77.21;98917.47;5092998;28;20091;-79
2022/12/10 04:43:45;;;;;;;40.53;23.38;;;;;;;10.07;77.32;99008.38;5092989;28;20073;-79
2022/12/10 04:46:11;;;;;;;38.05;23.10;;;;;;;8.78;76.78;98799.19;5092823;28;20428;-79
2022/12/10 04:48:37;;;;;;;42.65;24.33;;;;;;;9.20;77.17;98874.00;5092769;28;20032;-79
2022/12/10 04:51:02;;;;;;;36.70;22.33;;;;;;;9.72;77.29;98954.66;5092764;28;20389;-80
2022/12/10 04:53:27;;;;;;;40.03;23.90;;;;;;;9.51;77.44;98931.72;5093873;28;20020;-79
2022/12/10 04:55:53;;;;;;;38.92;24.40;;;;;;;9.30;76.87;98898.25;5093147;28;20480;-79
2022/12/10 04:58:18;;;;;;;40.67;25.08;;;;;;;9.30;77.69;98894.78;5092881;28;20035;-80
2022/12/10 05:00:44;;;;;;;40.58;23.50;;;;;;;9.30;77.32;98903.50;5093013;28;20055;-80
2022/12/10 05:03:09;;;;;;;36.25;22.92;;;;;;;9.65;77.33;98980.94;5092828;28;20084;-80
2022/12/10 05:05:35;;;;;;;38.53;23.23;;;;;;;9.98;77.18;99033.22;5092908;28;20439;-79
2022/12/10 05:08:00;;;;;;;37.53;23.75;;;;;;;9.75;77.19;98980.66;5092516;28;20024;-79
2022/12/10 05:10:26;;;;;;;39.97;24.45;;;;;;;9.97;77.47;99021.88;5092084;28;20023;-79
2022/12/10 05:12:52;;;;;;;33.35;22.00;;;;;;;9.62;77.72;98970.75;5092576;28;20058;-79
2022/12/10 05:15:17;;;;;;;36.88;24.02;;;;;;;9.61;77.36;98965.66;5092389;28;20063;-80
2022/12/10 05:17:43;;;;;;;35.13;22.20;;;;;;;9.82;77.83;99003.44;5092200;28;20119;-79
2022/12/10 05:20:09;;;;;;;38.92;23.73;;;;;;;9.62;77.50;98967.31;5090720;28;20107;-79
2022/12/10 05:25:18;;;;;;;34.85;20.67;;;;;;;9.82;77.13;98985.00;5092311;28;20088;-79
2022/12/10 05:27:43;;;;;;;40.10;22.83;;;;;;;9.32;77.01;98911.22;5092112;28;20469;-79
2022/12/10 05:30:09;;;;;;;36.17;21.50;;;;;;;9.87;77.28;98993.16;5092059;28;20476;-79
2022/12/10 05:32:35;;;;;;;35.08;22.08;;;;;;;10.04;77.29;99019.28;5092100;28;20051;-79
2022/12/10 05:35:00;;;;;;;34.05;21.50;;;;;;;9.70;77.57;98954.84;5091785;28;20427;-79
2022/12/10 05:37:28;;;;;;;35.13;21.65;;;;;;;10.05;77.32;99019.09;5091856;28;20572;-79
2022/12/10 05:39:54;;;;;;;34.85;21.17;;;;;;;10.04;77.27;99011.38;5090618;28;20020;-79
2022/12/10 05:42:20;;;;;;;35.05;22.05;;;;;;;9.43;77.00;98908.91;5091602;28;20027;-79
2022/12/10 05:44:45;;;;;;;36.03;21.23;;;;;;;9.98;77.07;98991.84;5090583;28;20031;-79
2022/12/10 05:47:11;;;;;;;37.67;22.15;;;;;;;9.76;77.02;98962.00;5091908;28;20031;-79
2022/12/10 05:49:36;;;;;;;33.22;19.45;;;;;;;9.38;76.94;98905.22;5090516;28;20499;-79
2022/12/10 05:52:02;;;;;;;36.92;22.02;;;;;;;9.99;77.41;99003.22;5091611;28;20020;-79
2022/12/10 05:54:27;;;;;;;38.97;23.45;;;;;;;9.39;76.93;98914.75;5091532;28;20107;-79
2022/12/10 05:56:53;;;;;;;36.80;21.70;;;;;;;8.76;77.26;98811.72;5091689;28;20111;-79
2022/12/10 05:59:19;;;;;;;35.42;22.05;;;;;;;9.43;77.15;98914.19;5091685;28;20032;-79
2022/12/10 06:01:44;;;;;;;32.63;20.05;;;;;;;9.50;76.89;98949.34;5091536;28;20020;-79
2022/12/10 06:04:11;;;;;;;40.22;24.20;;;;;;;10.04;77.37;98995.56;5091401;28;20031;-79
2022/12/10 06:06:38;;;;;;;35.35;21.95;;;;;;;9.72;77.02;98947.56;5091506;28;20107;-79
2022/12/10 06:09:05;;;;;;;39.50;23.35;;;;;;;10.06;77.41;99004.09;5090012;28;20026;-79
2022/12/10 06:11:30;;;;;;;46.50;26.10;;;;;;;9.34;76.57;98909.22;5089777;28;20051;-79
2022/12/10 06:13:57;;;;;;;44.95;24.00;;;;;;;10.03;76.94;99023.75;5091670;28;20027;-79
2022/12/10 06:16:23;;;;;;;45.13;24.95;;;;;;;9.73;76.76;98986.13;5091448;28;20028;-79
2022/12/10 06:18:49;;;;;;;42.05;22.90;;;;;;;9.13;77.02;98892.38;5091435;28;20020;-79
2022/12/10 06:21:16;;;;;;;41.28;22.67;;;;;;;9.83;77.01;98999.00;5091528;28;20028;-79
2022/12/10 06:23:42;;;;;;;41.03;23.83;;;;;;;9.18;76.80;98884.72;5091469;28;20020;-79
2022/12/10 06:26:11;;;;;;;45.90;24.60;;;;;;;10.01;77.42;99002.03;5091687;28;20027;-79
2022/12/10 06:28:37;;;;;;;45.55;25.15;;;;;;;10.03;77.20;98992.09;5091601;28;20028;-79
2022/12/10 06:31:02;;;;;;;47.95;25.65;;;;;;;9.78;76.81;98954.75;5091254;28;20054;-79
2022/12/10 06:33:28;;;;;;;42.72;24.58;;;;;;;9.57;76.95;98923.88;5091588;28;20493;-79
2022/12/10 06:35:53;;;;;;;46.38;25.95;;;;;;;9.90;77.10;98993.78;5091346;28;20054;-79
2022/12/10 06:38:19;;;;;;;45.92;25.63;;;;;;;10.16;76.46;99001.97;5091313;28;20063;-79
2022/12/10 06:40:44;;;;;;;44.55;24.27;;;;;;;9.35;76.42;98874.78;5091239;28;20059;-79
2022/12/10 06:43:09;;;;;;;49.13;28.17;;;;;;;9.79;76.88;98939.75;5091224;28;20416;-79
2022/12/10 06:45:39;;;;;;;43.65;25.30;;;;;;;9.45;76.69;98885.03;5089940;28;20028;-80
2022/12/10 06:48:05;;;;;;;44.95;25.83;;;;;;;9.76;76.87;98953.28;5091181;28;20031;-79
2022/12/10 06:50:30;;;;;;;38.45;23.45;;;;;;;9.75;76.93;98934.03;5090915;28;20020;-79
2022/12/10 06:52:55;;;;;;;41.40;24.30;;;;;;;9.62;76.35;98912.78;5089990;28;20027;-79
2022/12/10 06:55:21;;;;;;;41.47;24.27;;;;;;;9.90;76.76;98960.34;5093641;28;20074;-79
2022/12/10 06:57:46;;;;;;;43.92;26.00;;;;;;;9.59;76.60;98913.16;5095097;28;20107;-79
2022/12/10 07:00:12;;;;;;;42.63;24.85;;;;;;;8.86;76.57;98790.34;5094909;28;20077;-79
2022/12/10 07:02:38;;;;;;;40.15;23.38;;;;;;;9.79;76.60;98940.56;5094863;28;20016;-79
2022/12/10 07:05:03;;;;;;;43.00;23.58;;;;;;;10.07;76.94;98982.81;5094544;28;20480;-79
2022/12/10 07:07:29;;;;;;;45.50;26.45;;;;;;;10.18;77.36;99018.41;5093394;28;20023;-79
2022/12/10 07:09:54;;;;;;;46.28;28.20;;;;;;;9.65;77.12;98922.94;5093316;28;20115;-79
2022/12/10 07:12:20;;;;;;;48.60;27.77;;;;;;;10.05;77.02;98971.63;5094328;28;20146;-79
2022/12/10 07:14:45;;;;;;;41.75;25.65;;;;;;;9.60;76.55;98893.69;5094625;28;20028;-79
2022/12/10 07:17:10;;;;;;;46.08;25.58;;;;;;;10.19;76.57;98981.31;5094565;28;20066;-79
2022/12/10 07:19:36;;;;;;;43.40;25.98;;;;;;;9.96;76.98;98942.94;5094708;28;20031;-79
2022/12/10 07:22:01;;;;;;;43.13;25.05;;;;;;;10.33;76.40;98997.28;5094532;28;20028;-80
2022/12/10 07:24:27;;;;;;;46.00;26.80;;;;;;;9.91;76.32;98935.59;5094427;28;20028;-79
2022/12/10 07:26:52;;;;;;;45.45;28.98;;;;;;;10.01;76.48;98945.81;5092950;28;20446;-79
2022/12/10 07:29:20;;;;;;;42.17;26.40;;;;;;;9.76;76.48;98898.75;5094245;28;20483;-79
2022/12/10 07:31:47;;;;;;;46.17;28.90;;;;;;;10.23;76.36;98971.22;5094118;28;20032;-79
2022/12/10 07:34:13;;;;;;;44.47;28.02;;;;;;;10.43;76.73;98985.41;5094054;28;20024;-79
2022/12/10 07:36:39;;;;;;;47.20;29.48;;;;;;;10.48;76.06;98977.75;5092784;28;20035;-79
2022/12/10 07:39:06;;;;;;;48.55;29.92;;;;;;;10.02;76.64;98897.34;5093993;28;20104;-79
2022/12/10 07:41:31;;;;;;;46.75;28.60;;;;;;;10.16;76.39;98918.38;5093957;28;20027;-79
2022/12/10 07:43:57;;;;;;;46.78;30.13;;;;;;;10.24;76.46;98914.81;5092772;28;20032;-79
2022/12/10 07:46:28;;;;;;;50.78;29.40;;;;;;;9.68;76.37;98813.72;5094149;28;20036;-79
2022/12/10 07:48:53;;;;;;;47.78;29.77;;;;;;;10.64;76.27;98946.78;5093918;28;20546;-79
2022/12/10 07:51:20;;;;;;;49.78;31.52;;;;;;;10.26;76.37;98901.44;5093759;28;20028;-79
2022/12/10 07:53:46;;;;;;;57.22;38.22;;;;;;;10.37;76.18;98920.19;5093862;28;20020;-79
2022/12/10 07:56:12;;;;;;;50.60;34.13;;;;;;;9.93;76.25;98814.09;5093585;28;20461;-79
2022/12/10 07:58:42;;;;;;;58.65;37.05;;;;;;;10.89;76.01;98969.09;5093798;28;20024;-79
2022/12/10 08:01:09;;;;;;;50.53;33.38;;;;;;;10.97;76.46;98949.63;5092584;28;20028;-79
2022/12/10 08:03:35;;;;;;;51.35;33.95;;;;;;;10.95;76.00;98949.00;5092203;28;20024;-80
2022/12/10 08:06:02;;;;;;;51.38;34.75;;;;;;;11.07;75.54;98958.84;5093191;28;20508;-79
2022/12/10 08:08:28;;;;;;;53.58;34.78;;;;;;;10.94;75.32;98921.78;5093748;28;20564;-79
2022/12/10 08:10:54;;;;;;;61.67;41.25;;;;;;;11.17;75.00;98936.56;5092096;28;20134;-80
2022/12/10 08:13:19;;;;;;;60.80;39.35;;;;;;;11.14;75.62;98938.53;5093342;28;20539;-79
2022/12/10 08:15:45;;;;;;;61.15;38.97;;;;;;;11.21;75.15;98919.28;5093164;28;20016;-79
2022/12/10 08:18:10;;;;;;;50.03;35.17;;;;;;;10.56;75.55;98805.22;5093390;28;20153;-79
2022/12/10 08:20:35;;;;;;;49.85;34.05;;;;;;;11.30;75.30;98918.91;5093199;28;20028;-79
2022/12/10 08:23:01;;;;;;;59.38;41.22;;;;;;;11.19;75.11;98885.13;5093288;28;20086;-79
2022/12/10 08:25:26;;;;;;;55.15;37.80;;;;;;;11.54;75.00;98943.19;5092030;28;20027;-79
2022/12/10 08:27:52;;;;;;;53.97;35.97;;;;;;;11.19;74.85;98885.13;5091665;28;20032;-79
2022/12/10 08:30:17;;;;;;;56.78;38.83;;;;;;;11.31;74.91;98911.81;5092941;28;20024;-79
2022/12/10 08:32:42;;;;;;;60.53;39.17;;;;;;;10.95;75.40;98853.94;5091667;28;20477;-79
2022/12/10 08:35:08;;;;;;;53.30;32.83;;;;;;;11.24;75.19;98895.13;5092981;28;20028;-80
2022/12/10 08:37:33;;;;;;;44.28;26.33;;;;;;;10.77;75.76;98828.88;5091508;28;20024;-79
2022/12/10 08:39:59;;;;;;;45.63;26.58;;;;;;;11.27;75.92;98916.69;5092763;28;20099;-79
2022/12/10 08:42:24;;;;;;;47.78;26.40;;;;;;;11.21;75.92;98919.28;5092688;28;20081;-79
2022/12/10 08:44:50;;;;;;;41.05;23.80;;;;;;;10.99;75.93;98894.78;5092639;28;20031;-79
2022/12/10 08:47:15;;;;;;;42.88;25.58;;;;;;;10.59;76.34;98836.50;5092542;28;20024;-79
2022/12/10 08:49:41;;;;;;;36.78;24.60;;;;;;;10.99;76.07;98903.53;5091369;28;20469;-80
2022/12/10 08:52:07;;;;;;;39.33;24.13;;;;;;;9.91;76.18;98732.56;5091200;28;20385;-80
2022/12/10 08:54:32;;;;;;;46.53;26.48;;;;;;;11.33;76.10;98947.59;5092595;28;20020;-79
2022/12/10 08:56:58;;;;;;;40.58;24.70;;;;;;;10.92;75.77;98865.69;5091274;28;20031;-79
2022/12/10 08:59:23;;;;;;;41.38;25.35;;;;;;;10.78;76.09;98872.75;5092567;28;20028;-79
2022/12/10 09:01:51;;;;;;;45.30;26.50;;;;;;;11.47;75.82;98943.19;5092602;28;20527;-79
2022/12/10 09:04:17;;;;;;;46.55;27.42;;;;;;;11.31;75.83;98917.91;5092489;28;20497;-79
2022/12/10 09:06:42;;;;;;;49.50;30.33;;;;;;;11.17;76.10;98899.56;5092440;28;20027;-79
2022/12/10 09:09:07;;;;;;;45.28;26.90;;;;;;;11.26;75.81;98891.25;5092270;28;20031;-79
2022/12/10 09:11:34;;;;;;;44.47;26.73;;;;;;;11.58;75.67;98925.91;5091961;28;20040;-80
2022/12/10 09:14:00;;;;;;;47.53;28.98;;;;;;;10.96;75.63;98822.03;5092203;28;20028;-79
2022/12/10 09:16:35;;;;;;;41.65;27.58;;;;;;;11.58;75.91;98913.50;5090233;28;20039;-79
2022/12/10 09:19:02;;;;;;;49.47;31.27;;;;;;;10.90;75.37;98798.25;5092455;28;20084;-80
2022/12/10 09:21:29;;;;;;;44.88;30.88;;;;;;;11.63;75.50;98907.63;5092185;28;20503;-79
2022/12/10 09:23:54;;;;;;;47.10;28.58;;;;;;;11.22;74.71;98815.22;5092059;28;20031;-80
2022/12/10 09:26:21;;;;;;;43.03;27.58;;;;;;;11.42;75.21;98853.09;5092039;28;20420;-80
2022/12/10 09:28:47;;;;;;;46.75;30.92;;;;;;;11.81;74.63;98899.97;5090630;28;20480;-80
2022/12/10 09:31:14;;;;;;;49.35;31.15;;;;;;;11.74;75.09;98897.28;5091786;28;20507;-79
2022/12/10 09:33:39;;;;;;;43.92;29.60;;;;;;;11.72;74.80;98867.56;5091895;28;20020;-80
2022/12/10 09:36:07;;;;;;;43.58;28.55;;;;;;;11.92;74.41;98883.53;5091915;28;20028;-80
2022/12/10 09:38:37;;;;;;;46.00;31.50;;;;;;;11.64;74.20;98820.16;5091828;28;20028;-79
2022/12/10 09:41:10;;;;;;;48.72;32.20;;;;;;;12.00;74.28;98871.91;5091948;28;20443;-79
2022/12/10 09:43:35;;;;;;;44.80;30.98;;;;;;;12.07;74.49;98859.50;5092054;28;20032;-80
2022/12/10 09:46:10;;;;;;;50.38;30.40;;;;;;;12.11;74.45;98863.38;5090541;28;20035;-80
2022/12/10 09:48:50;;;;;;;45.83;30.45;;;;;;;12.12;74.27;98864.19;5091568;28;20440;-80
2022/12/10 09:51:25;;;;;;;51.28;32.95;;;;;;;12.05;73.70;98849.13;5091459;28;20028;-80
2022/12/10 09:53:58;;;;;;;46.47;30.67;;;;;;;11.66;74.49;98777.66;5085229;28;20044;-80
2022/12/10 09:56:28;;;;;;;50.40;32.17;;;;;;;11.80;74.23;98789.88;5071658;28;20125;-80
2022/12/10 09:58:54;;;;;;;43.25;27.90;;;;;;;12.01;74.75;98825.94;5070355;28;20028;-80
2022/12/10 10:01:24;;;;;;;53.28;31.63;;;;;;;11.87;74.65;98790.69;5071895;28;20008;-80
2022/12/10 10:03:50;;;;;;;46.38;30.48;;;;;;;10.95;74.06;98640.81;5070268;28;20029;-79
2022/12/10 10:06:16;;;;;;;50.72;30.98;;;;;;;12.02;74.67;98811.69;5071739;28;20032;-80
2022/12/10 10:08:45;;;;;;;51.15;33.28;;;;;;;11.19;74.63;98705.47;5071591;28;20493;-80
2022/12/10 10:11:32;;;;;;;46.70;31.05;;;;;;;12.06;74.27;98807.59;5070884;28;20406;-79
2022/12/10 10:14:03;;;;;;;46.97;28.50;;;;;;;12.11;74.46;98807.00;5071344;28;20109;-79
2022/12/10 10:16:45;;;;;;;51.00;33.67;;;;;;;11.83;74.20;98751.66;5070182;28;20070;-80
2022/12/10 10:19:16;;;;;;;50.40;32.85;;;;;;;12.12;74.61;98805.97;5071560;28;20429;-80
2022/12/10 10:21:45;;;;;;;54.13;33.83;;;;;;;12.10;74.64;98798.22;5071262;28;20031;-80
2022/12/10 10:24:16;;;;;;;53.67;34.05;;;;;;;12.08;74.56;98784.41;5069541;28;20048;-79
2022/12/10 10:26:42;;;;;;;51.65;34.17;;;;;;;11.76;74.84;98735.75;5070852;28;20059;-79
2022/12/10 10:29:11;;;;;;;59.90;38.60;;;;;;;11.25;74.44;98633.31;5075136;28;20036;-79
2022/12/10 10:31:40;;;;;;;53.78;36.03;;;;;;;11.06;74.85;98605.88;5073600;28;20028;-79
2022/12/10 10:34:19;;;;;;;46.38;32.05;;;;;;;11.96;74.17;98741.06;5075215;28;20090;-80
2022/12/10 10:36:45;;;;;;;64.65;39.25;;;;;;;12.20;74.73;98764.22;5074830;28;20032;-80
2022/12/10 10:39:16;;;;;;;65.03;42.80;;;;;;;12.22;74.79;98754.25;5075061;28;20082;-79
2022/12/10 10:41:42;;;;;;;60.88;40.30;;;;;;;11.93;74.68;98715.84;5075034;28;20021;-80
2022/12/10 10:44:16;;;;;;;57.05;37.97;;;;;;;12.04;75.03;98715.22;5074749;28;20647;-80
2022/12/10 10:46:44;;;;;;;65.78;43.20;;;;;;;11.74;74.80;98667.19;5074643;28;20082;-80
2022/12/10 10:49:33;;;;;;;69.63;43.05;;;;;;;11.77;75.00;98653.59;5073649;28;20458;-80
2022/12/10 10:52:05;;;;;;;64.18;39.85;;;;;;;12.17;74.82;98718.84;5075033;28;20078;-80
2022/12/10 10:54:34;;;;;;;56.05;36.70;;;;;;;12.00;74.72;98682.25;5073671;28;20025;-80
2022/12/10 10:57:33;;;;;;;68.53;38.85;;;;;;;12.36;75.01;98744.44;5075215;28;20028;-80
2022/12/10 11:00:22;;;;;;;73.72;41.63;;;;;;;12.35;74.84;98742.81;5062548;28;20037;-80
2022/12/10 11:02:48;;;;;;;60.20;37.80;;;;;;;12.15;74.80;98705.00;5074586;28;20039;-80
2022/12/10 11:05:30;;;;;;;58.00;36.20;;;;;;;12.38;74.68;98745.03;5075119;28;20102;-80
2022/12/10 11:08:05;;;;;;;56.90;34.42;;;;;;;11.46;74.80;98589.97;5075683;28;20515;-80
2022/12/10 11:10:31;;;;;;;56.42;33.67;;;;;;;11.91;74.78;98659.69;5073681;28;20056;-80
2022/12/10 11:13:06;;;;;;;55.20;33.75;;;;;;;12.44;74.48;98743.38;5074469;28;20073;-80
2022/12/10 11:15:32;;;;;;;49.75;32.17;;;;;;;12.45;74.76;98737.06;5074831;28;20020;-80
2022/12/10 11:17:58;;;;;;;61.33;36.13;;;;;;;12.48;74.47;98731.34;5074584;28;20552;-80
2022/12/10 11:20:27;;;;;;;50.63;32.47;;;;;;;11.95;74.15;98650.31;5074459;28;20029;-80
2022/12/10 11:22:58;;;;;;;59.28;36.65;;;;;;;12.49;74.21;98720.53;5074275;28;20028;-80
2022/12/10 11:25:32;;;;;;;54.78;32.85;;;;;;;12.53;74.28;98724.41;5074487;28;20020;-80
2022/12/10 11:28:32;;;;;;;60.35;35.25;;;;;;;12.03;74.27;98639.50;5074309;28;20020;-80
2022/12/10 11:31:39;;;;;;;53.05;33.10;;;;;;;12.43;74.57;98691.47;5074362;28;20100;-80
2022/12/10 11:34:38;;;;;;;50.28;31.73;;;;;;;12.61;74.38;98705.63;5074208;28;20036;-80
2022/12/10 11:37:10;;;;;;;58.65;34.95;;;;;;;12.61;74.34;98694.22;5074154;28;20023;-80
2022/12/10 11:39:48;;;;;;;60.35;33.22;;;;;;;12.64;74.53;98688.53;5073046;28;20448;-80
2022/12/10 11:42:25;;;;;;;63.95;37.92;;;;;;;12.56;74.15;98656.97;5073782;28;20500;-80
2022/12/10 11:44:59;;;;;;;58.60;34.65;;;;;;;12.71;74.25;98674.22;5073925;28;20386;-80